Time;durP1;ratioP1;P1;durP2;ratioP2;P2;SDS_P1;SDS_P2;PMS_P1;PMS_P2;Temp;Humidity;BMP_temperature;BMP_pressure;BME280_temperature;BME280_humidity;BME280_pressure;Samples;Min_cycle;Max_cycle;Signal;HPM_P1;HPM_P2
2023/10/08 00:05:50;;;;;;;5.10;1.50;;;;;;;9.03;100.00;99187.96;435911;1253;140958;-67
2023/10/08 00:15:56;;;;;;;2.50;1.40;;;;;;;9.01;100.00;99187.86;435512;1255;139363;-66
2023/10/08 00:26:06;;;;;;;2.10;1.50;;;;;;;8.95;100.00;99180.22;436100;1254;139586;-66
2023/10/08 00:36:18;;;;;;;3.50;1.30;;;;;;;8.93;100.00;99191.68;435730;1254;139350;-66
2023/10/08 00:46:29;;;;;;;5.50;2.00;;;;;;;8.93;100.00;99172.48;435611;1256;139655;-65
2023/10/08 00:56:50;;;;;;;4.00;1.30;;;;;;;8.94;100.00;99155.15;435593;1256;138798;-66
2023/10/08 01:06:59;;;;;;;4.60;3.00;;;;;;;8.97;100.00;99185.86;435679;1256;140903;-66
2023/10/08 01:17:07;;;;;;;5.70;2.70;;;;;;;9.02;100.00;99187.29;435897;1256;138911;-66
2023/10/08 01:27:12;;;;;;;5.70;2.80;;;;;;;9.04;100.00;99161.13;436104;1256;139750;-65
2023/10/08 01:37:19;;;;;;;7.60;3.60;;;;;;;9.06;100.00;99164.54;435901;1256;141017;-67
2023/10/08 01:47:25;;;;;;;8.70;4.50;;;;;;;9.08;100.00;99180.95;435856;1256;139407;-66
2023/10/08 01:57:32;;;;;;;8.40;5.00;;;;;;;9.14;100.00;99173.11;435775;1256;138800;-66
2023/10/08 02:07:38;;;;;;;10.30;6.20;;;;;;;9.17;100.00;99176.02;435606;1256;138692;-66
2023/10/08 02:17:43;;;;;;;11.60;5.10;;;;;;;9.21;100.00;99193.44;435585;1254;139428;-66
2023/10/08 02:27:49;;;;;;;11.20;5.70;;;;;;;9.24;100.00;99193.05;435571;1256;139573;-65
2023/10/08 02:37:55;;;;;;;11.40;5.70;;;;;;;9.23;100.00;99209.70;435983;1254;140549;-66
2023/10/08 02:48:01;;;;;;;9.10;6.20;;;;;;;9.25;100.00;99247.51;435874;1256;139485;-66
2023/10/08 02:58:11;;;;;;;9.10;6.10;;;;;;;9.24;100.00;99263.44;436060;1255;139087;-69
2023/10/08 03:08:21;;;;;;;13.10;7.00;;;;;;;9.23;100.00;99272.92;436289;1255;139427;-66
2023/10/08 03:18:35;;;;;;;8.90;5.80;;;;;;;9.22;100.00;99278.95;435917;1255;140789;-65
2023/10/08 03:28:42;;;;;;;10.40;6.40;;;;;;;9.15;100.00;99298.06;435915;1256;139987;-65
2023/10/08 03:38:57;;;;;;;7.10;5.70;;;;;;;9.11;100.00;99300.37;435744;1256;139004;-66
2023/10/08 03:49:06;;;;;;;4.60;4.00;;;;;;;9.03;100.00;99309.77;435948;1256;139270;-65
2023/10/08 03:59:14;;;;;;;5.30;3.70;;;;;;;8.88;100.00;99328.70;436684;1256;141152;-65
2023/10/08 04:09:25;;;;;;;4.00;2.70;;;;;;;8.72;100.00;99330.33;437200;1257;138814;-65
2023/10/08 04:19:33;;;;;;;5.40;2.60;;;;;;;8.60;100.00;99351.13;436492;1256;138895;-66
2023/10/08 04:29:42;;;;;;;7.50;4.20;;;;;;;8.49;100.00;99373.39;436252;1256;139387;-66
2023/10/08 04:39:57;;;;;;;4.70;3.90;;;;;;;8.34;100.00;99385.95;436065;1257;139931;-65
2023/10/08 04:50:06;;;;;;;5.50;3.70;;;;;;;8.21;100.00;99410.58;435957;1254;138967;-66
2023/10/08 05:00:15;;;;;;;8.70;5.00;;;;;;;7.97;100.00;99416.42;436067;1256;138915;-66
2023/10/08 05:11:00;;;;;;;9.20;4.70;;;;;;;7.73;100.00;99440.38;436414;1254;138726;-67
2023/10/08 05:21:25;;;;;;;8.70;4.30;;;;;;;7.64;100.00;99467.73;435871;1256;138595;-65
2023/10/08 05:31:46;;;;;;;5.30;3.80;;;;;;;7.69;100.00;99495.52;435790;1256;138798;-66
2023/10/08 05:42:06;;;;;;;5.00;3.00;;;;;;;7.86;100.00;99531.36;436911;1256;139317;-66
2023/10/08 05:52:27;;;;;;;7.10;2.60;;;;;;;9.06;100.00;99557.98;435668;1254;139403;-65
2023/10/08 06:02:54;;;;;;;1.90;1.60;;;;;;;12.84;100.00;99577.23;436231;1254;138963;-66
2023/10/08 06:13:04;;;;;;;2.20;0.80;;;;;;;16.75;99.35;99604.64;435949;1252;139467;-66
2023/10/08 06:23:11;;;;;;;0.40;0.30;;;;;;;19.87;92.30;99634.02;436136;1256;140301;-67
2023/10/08 06:33:17;;;;;;;;;;;;;;;22.62;84.92;99649.52;435928;1254;139429;-67
2023/10/08 06:43:24;;;;;;;1.50;0.80;;;;;;;25.33;78.39;99669.71;436507;1255;125412;-67
2023/10/08 06:53:30;;;;;;;1.50;0.50;;;;;;;27.36;70.33;99682.94;435919;1257;138240;-66
2023/10/08 07:03:37;;;;;;;2.30;0.60;;;;;;;28.68;63.18;99704.10;435910;1256;138810;-66
2023/10/08 07:13:44;;;;;;;0.40;0.40;;;;;;;29.90;56.43;99734.52;436087;1254;138195;-67
2023/10/08 07:24:00;;;;;;;1.30;0.50;;;;;;;30.71;47.08;99764.32;435737;1254;139279;-67
2023/10/08 07:34:17;;;;;;;0.40;0.30;;;;;;;31.17;43.79;99779.58;436057;1254;166906;-66
2023/10/08 07:44:25;;;;;;;0.80;0.50;;;;;;;32.44;41.60;99787.64;436816;1255;138247;-66
2023/10/08 07:54:34;;;;;;;0.60;0.30;;;;;;;33.40;38.32;99797.86;436143;1254;138208;-66
2023/10/08 08:04:41;;;;;;;4.90;0.50;;;;;;;33.37;35.02;99808.62;436014;1254;141026;-65
2023/10/08 08:14:47;;;;;;;2.70;0.30;;;;;;;32.48;32.58;99829.55;435968;1255;138563;-66
2023/10/08 08:24:55;;;;;;;0.70;0.40;;;;;;;31.45;31.89;99834.40;436379;1253;138512;-66
2023/10/08 08:35:07;;;;;;;0.80;0.50;;;;;;;30.20;30.95;99833.54;436395;1256;139396;-65
2023/10/08 08:45:20;;;;;;;5.50;0.70;;;;;;;29.07;31.30;99838.00;435897;1253;138161;-66
2023/10/08 08:55:28;;;;;;;1.40;0.40;;;;;;;25.81;30.32;99845.92;435900;1254;138307;-66
2023/10/08 09:05:34;;;;;;;1.50;0.60;;;;;;;22.18;31.38;99856.42;435933;1254;138085;-66
2023/10/08 09:15:42;;;;;;;0.90;0.40;;;;;;;19.18;32.61;99876.56;436446;1253;138077;-66
2023/10/08 09:25:49;;;;;;;0.60;0.40;;;;;;;17.19;34.23;99881.61;435797;1253;140482;-65
2023/10/08 09:35:57;;;;;;;;;;;;;;;15.46;36.08;99899.36;435761;1255;139850;-65
2023/10/08 09:46:19;;;;;;;5.10;0.50;;;;;;;14.33;36.78;99919.21;436081;1254;125987;-64
2023/10/08 09:56:25;;;;;;;2.10;0.40;;;;;;;13.45;37.65;99935.75;436989;1253;139812;-64
2023/10/08 10:06:32;;;;;;;2.20;0.80;;;;;;;12.90;38.94;99943.34;436436;1256;138137;-66
2023/10/08 10:16:41;;;;;;;0.80;0.40;;;;;;;12.47;39.81;99947.26;435888;1255;138794;-66
2023/10/08 10:26:50;;;;;;;1.90;0.40;;;;;;;12.05;40.05;99947.02;436645;1255;138842;-65
2023/10/08 10:36:59;;;;;;;2.10;0.40;;;;;;;11.65;40.89;99953.88;436327;1254;138161;-67
2023/10/08 10:47:27;;;;;;;1.40;0.50;;;;;;;11.35;40.90;99962.18;436603;1253;138480;-67
2023/10/08 10:57:35;;;;;;;;;;;;;;;11.18;41.73;99976.52;437718;1253;139977;-69
2023/10/08 11:07:44;;;;;;;0.40;0.40;;;;;;;10.95;40.99;99985.41;435934;1255;124926;-69
2023/10/08 11:17:52;;;;;;;1.20;0.40;;;;;;;10.77;41.79;99988.92;436133;1253;138794;-70
2023/10/08 11:28:02;;;;;;;1.90;0.80;;;;;;;10.81;41.64;99989.38;436000;1254;139520;-70
2023/10/08 11:38:14;;;;;;;0.20;0.20;;;;;;;10.74;41.28;99988.59;435856;1256;138291;-69
2023/10/08 11:48:28;;;;;;;3.30;0.50;;;;;;;10.68;41.35;99994.88;435788;1253;138886;-69
2023/10/08 11:58:38;;;;;;;0.90;0.50;;;;;;;10.66;41.58;99992.17;436125;1252;138191;-70
2023/10/08 12:08:45;;;;;;;1.40;0.60;;;;;;;10.66;41.27;99989.05;436584;1253;138019;-70
2023/10/08 12:18:58;;;;;;;1.50;0.50;;;;;;;10.67;41.81;99993.54;436257;1253;139213;-69
2023/10/08 12:29:06;;;;;;;2.30;0.40;;;;;;;10.71;41.66;100000.27;435693;1253;139860;-69
2023/10/08 12:39:14;;;;;;;8.60;0.40;;;;;;;10.67;41.17;99995.44;436158;1253;139983;-69
2023/10/08 12:49:22;;;;;;;2.40;0.50;;;;;;;10.63;41.20;99999.52;435759;1256;139091;-69
2023/10/08 12:59:30;;;;;;;3.20;0.40;;;;;;;10.68;40.91;99999.61;435908;1253;139358;-69
2023/10/08 13:09:38;;;;;;;1.30;0.70;;;;;;;10.75;40.81;100009.21;435944;1253;137997;-69
2023/10/08 13:19:45;;;;;;;0.70;0.50;;;;;;;10.91;40.58;100019.45;435805;1256;138478;-70
2023/10/08 13:29:51;;;;;;;2.30;0.60;;;;;;;11.03;40.88;100022.27;436272;1253;139560;-69
2023/10/08 13:39:57;;;;;;;1.90;0.50;;;;;;;11.07;41.00;100032.53;436098;1256;139650;-70
2023/10/08 13:50:10;;;;;;;0.20;0.20;;;;;;;11.03;40.90;100023.70;436204;1255;139012;-69
2023/10/08 14:00:25;;;;;;;0.40;0.40;;;;;;;10.91;41.24;100019.80;435802;1255;139187;-69
2023/10/08 14:10:31;;;;;;;0.80;0.50;;;;;;;10.86;42.00;100016.58;440204;1253;138383;-69
2023/10/08 14:20:40;;;;;;;2.90;0.50;;;;;;;10.86;42.73;100032.33;436304;1253;139197;-69
2023/10/08 14:30:46;;;;;;;1.40;0.50;;;;;;;10.68;43.32;100031.11;435840;1253;139649;-69
2023/10/08 14:51:19;;;;;;;1.10;0.70;;;;;;;10.18;43.91;100043.16;435847;1254;138352;-68
2023/10/08 15:01:26;;;;;;;2.70;1.20;;;;;;;9.91;44.13;100047.95;435818;1253;138395;-71
2023/10/08 15:11:32;;;;;;;1.00;0.60;;;;;;;9.61;44.07;100055.77;436432;1254;139957;-69
2023/10/08 15:21:39;;;;;;;1.30;0.50;;;;;;;9.38;44.34;100062.55;435766;1254;140144;-69
2023/10/08 15:31:45;;;;;;;0.60;0.60;;;;;;;9.12;44.97;100077.13;435379;1253;139168;-68
2023/10/08 15:41:51;;;;;;;1.00;0.60;;;;;;;8.85;45.26;100096.77;435321;1256;138520;-69
2023/10/08 15:51:57;;;;;;;1.10;0.70;;;;;;;8.56;45.76;100117.71;435565;1255;141331;-67
2023/10/08 16:02:03;;;;;;;1.40;0.70;;;;;;;8.25;46.48;100128.89;435896;1254;138752;-69
2023/10/08 16:12:09;;;;;;;0.90;0.60;;;;;;;7.94;46.64;100135.13;435765;1256;140639;-68
2023/10/08 16:22:16;;;;;;;5.20;1.40;;;;;;;7.63;46.68;100153.55;435591;1256;138906;-68
2023/10/08 16:32:22;;;;;;;1.40;0.90;;;;;;;7.37;47.49;100166.83;435751;1253;137894;-69
2023/10/08 16:42:28;;;;;;;5.90;3.00;;;;;;;7.05;48.58;100178.36;435990;1256;138919;-68
2023/10/08 16:52:34;;;;;;;1.90;1.20;;;;;;;6.69;49.47;100198.20;435397;1253;138123;-67
2023/10/08 17:02:41;;;;;;;4.00;1.50;;;;;;;6.40;50.06;100214.44;436099;1256;138520;-66
2023/10/08 17:12:51;;;;;;;3.90;1.70;;;;;;;6.22;50.52;100226.02;436138;1256;138668;-67
2023/10/08 17:22:57;;;;;;;4.70;1.90;;;;;;;6.00;51.45;100235.81;435910;1256;138575;-65
2023/10/08 17:33:06;;;;;;;4.40;2.00;;;;;;;5.72;52.23;100246.13;436147;1253;138637;-65
2023/10/08 17:43:12;;;;;;;11.50;5.70;;;;;;;5.44;53.33;100259.71;436441;1256;138728;-67
2023/10/08 17:53:19;;;;;;;7.30;4.40;;;;;;;5.15;54.44;100258.68;435569;1253;138329;-66
2023/10/08 18:03:24;;;;;;;11.40;5.40;;;;;;;4.89;55.61;100272.48;436164;1251;137769;-67
2023/10/08 18:13:31;;;;;;;26.60;13.10;;;;;;;4.66;56.47;100269.83;435720;1254;139518;-64
2023/10/08 18:23:39;;;;;;;13.70;7.80;;;;;;;4.47;57.37;100283.89;435866;1253;138904;-65
2023/10/08 18:33:47;;;;;;;18.60;12.70;;;;;;;4.28;58.07;100292.02;435970;1256;138189;-66
2023/10/08 18:43:54;;;;;;;24.30;14.60;;;;;;;4.03;59.28;100290.95;435711;1254;139424;-66
2023/10/08 18:54:00;;;;;;;19.40;10.60;;;;;;;3.78;60.37;100300.74;435470;1254;141373;-70
2023/10/08 19:04:07;;;;;;;9.70;6.50;;;;;;;3.56;61.68;100308.70;435948;1254;140511;-70
2023/10/08 19:14:13;;;;;;;;;;;;;;;3.39;62.03;100312.39;436058;1254;139725;-70
2023/10/08 19:24:20;;;;;;;19.20;10.10;;;;;;;3.21;62.99;100324.20;435502;1253;126555;-70
2023/10/08 19:34:26;;;;;;;22.10;14.50;;;;;;;2.99;63.77;100335.56;435631;1254;188332;-71
2023/10/08 19:44:33;;;;;;;22.40;14.40;;;;;;;2.74;64.73;100347.82;435780;1255;139118;-69
2023/10/08 19:54:39;;;;;;;26.80;17.40;;;;;;;2.48;65.52;100351.06;435436;1254;139500;-71
2023/10/08 20:04:45;;;;;;;27.50;16.60;;;;;;;2.24;66.24;100356.67;435768;1254;139327;-70
2023/10/08 20:14:51;;;;;;;21.90;13.30;;;;;;;2.00;67.27;100370.02;436759;1254;139013;-70
2023/10/08 20:24:57;;;;;;;18.90;10.70;;;;;;;1.78;68.08;100366.38;435843;1256;138945;-72
2023/10/08 20:35:03;;;;;;;12.60;8.10;;;;;;;1.59;68.51;100373.05;436362;1255;140012;-70
2023/10/08 20:45:13;;;;;;;18.40;14.30;;;;;;;1.44;69.14;100379.47;435911;1253;139260;-69
2023/10/08 20:55:22;;;;;;;14.10;8.40;;;;;;;1.29;69.78;100377.77;435512;1256;140611;-68
2023/10/08 21:05:28;;;;;;;14.00;8.00;;;;;;;1.08;70.59;100368.73;435420;1255;140768;-69
2023/10/08 21:15:35;;;;;;;13.70;9.70;;;;;;;0.85;71.10;100384.50;435682;1256;139503;-69
2023/10/08 21:25:41;;;;;;;15.70;9.20;;;;;;;0.69;71.50;100385.36;435357;1254;140253;-71
2023/10/08 21:35:47;;;;;;;15.10;9.00;;;;;;;0.52;72.10;100379.33;435403;1256;139775;-71
2023/10/08 21:45:53;;;;;;;11.10;7.70;;;;;;;0.37;72.86;100386.36;435509;1256;139835;-68
2023/10/08 21:56:07;;;;;;;11.80;7.10;;;;;;;0.21;73.23;100389.77;435575;1254;138791;-69
2023/10/08 22:06:13;;;;;;;11.40;9.10;;;;;;;0.04;74.03;100386.29;436483;1254;138913;-68
2023/10/08 22:16:19;;;;;;;12.70;10.10;;;;;;;-0.11;74.46;100363.69;435642;1256;140268;-70
2023/10/08 22:26:26;;;;;;;16.00;12.90;;;;;;;-0.27;75.13;100359.84;436154;1254;139102;-69
2023/10/08 22:36:41;;;;;;;24.00;14.10;;;;;;;-0.39;75.80;100347.01;435796;1255;140639;-69
2023/10/08 22:46:56;;;;;;;16.80;11.00;;;;;;;-0.50;76.52;100352.75;436057;1256;139179;-69
2023/10/08 22:57:05;;;;;;;22.10;12.60;;;;;;;-0.62;77.35;100353.36;436174;1256;140301;-69
2023/10/08 23:07:10;;;;;;;15.90;12.60;;;;;;;-0.72;77.67;100351.17;435731;1256;140779;-69
2023/10/08 23:17:19;;;;;;;25.90;14.40;;;;;;;-0.82;78.40;100354.14;435528;1256;139803;-63
2023/10/08 23:27:25;;;;;;;19.80;14.10;;;;;;;-0.84;79.16;100354.33;435815;1256;139356;-64
2023/10/08 23:37:37;;;;;;;23.60;15.50;;;;;;;-0.77;80.06;100340.70;435843;1255;140181;-64
2023/10/08 23:47:46;;;;;;;22.00;16.40;;;;;;;-0.69;80.42;100328.11;435820;1254;141176;-63
2023/10/08 23:58:08;;;;;;;21.00;14.80;;;;;;;-0.60;81.02;100310.52;435359;1257;141090;-63
